sensor_id;sensor_type;location;lat;lon;timestamp;P1;durP1;ratioP1;P2;durP2;ratioP2
64252;SDS011;50592;52.958;-7.470;2024-01-30T00:04:25;9.35;;;2.10;;
64252;SDS011;50592;52.958;-7.470;2024-01-30T00:18:59;12.35;;;3.05;;
64252;SDS011;50592;52.958;-7.470;2024-01-30T00:21:27;11.95;;;2.65;;
64252;SDS011;50592;52.958;-7.470;2024-01-30T00:24:07;14.10;;;3.53;;
64252;SDS011;50592;52.958;-7.470;2024-01-30T00:33:58;11.77;;;3.45;;
64252;SDS011;50592;52.958;-7.470;2024-01-30T00:39:23;12.70;;;2.85;;
64252;SDS011;50592;52.958;-7.470;2024-01-30T00:41:53;11.70;;;2.72;;
64252;SDS011;50592;52.958;-7.470;2024-01-30T00:44:39;11.95;;;3.13;;
64252;SDS011;50592;52.958;-7.470;2024-01-30T00:50:30;11.60;;;2.78;;
64252;SDS011;50592;52.958;-7.470;2024-01-30T00:52:55;12.55;;;2.38;;
64252;SDS011;50592;52.958;-7.470;2024-01-30T00:58:36;14.60;;;2.92;;
64252;SDS011;50592;52.958;-7.470;2024-01-30T01:01:04;9.13;;;3.38;;
64252;SDS011;50592;52.958;-7.470;2024-01-30T01:06:25;10.63;;;2.55;;
64252;SDS011;50592;52.958;-7.470;2024-01-30T01:09:01;11.77;;;2.50;;
64252;SDS011;50592;52.958;-7.470;2024-01-30T01:12:15;12.00;;;2.53;;
64252;SDS011;50592;52.958;-7.470;2024-01-30T01:14:41;10.07;;;2.72;;
64252;SDS011;50592;52.958;-7.470;2024-01-30T01:17:10;14.65;;;2.35;;
64252;SDS011;50592;52.958;-7.470;2024-01-30T01:22:54;8.57;;;2.20;;
64252;SDS011;50592;52.958;-7.470;2024-01-30T01:29:23;10.85;;;2.28;;
64252;SDS011;50592;52.958;-7.470;2024-01-30T01:32:45;11.57;;;2.42;;
64252;SDS011;50592;52.958;-7.470;2024-01-30T02:03:55;8.43;;;2.10;;
64252;SDS011;50592;52.958;-7.470;2024-01-30T02:14:46;9.85;;;2.90;;
64252;SDS011;50592;52.958;-7.470;2024-01-30T02:37:20;7.30;;;2.25;;
64252;SDS011;50592;52.958;-7.470;2024-01-30T02:54:10;8.52;;;2.25;;
64252;SDS011;50592;52.958;-7.470;2024-01-30T02:57:33;10.20;;;3.07;;
64252;SDS011;50592;52.958;-7.470;2024-01-30T03:04:46;6.40;;;2.50;;
64252;SDS011;50592;52.958;-7.470;2024-01-30T03:08:49;12.45;;;2.45;;
64252;SDS011;50592;52.958;-7.470;2024-01-30T03:11:15;11.13;;;2.92;;
64252;SDS011;50592;52.958;-7.470;2024-01-30T03:13:52;6.72;;;3.30;;
64252;SDS011;50592;52.958;-7.470;2024-01-30T03:16:18;6.80;;;2.78;;
64252;SDS011;50592;52.958;-7.470;2024-01-30T03:18:48;6.80;;;2.17;;
64252;SDS011;50592;52.958;-7.470;2024-01-30T03:21:35;9.48;;;3.10;;
64252;SDS011;50592;52.958;-7.470;2024-01-30T03:24:13;13.47;;;3.80;;
64252;SDS011;50592;52.958;-7.470;2024-01-30T03:26:39;9.30;;;2.78;;
64252;SDS011;50592;52.958;-7.470;2024-01-30T03:29:08;11.43;;;2.60;;
64252;SDS011;50592;52.958;-7.470;2024-01-30T03:31:34;13.32;;;2.90;;
64252;SDS011;50592;52.958;-7.470;2024-01-30T03:34:02;12.65;;;3.35;;
64252;SDS011;50592;52.958;-7.470;2024-01-30T03:36:28;9.00;;;2.30;;
64252;SDS011;50592;52.958;-7.470;2024-01-30T03:38:54;8.57;;;2.15;;
64252;SDS011;50592;52.958;-7.470;2024-01-30T03:41:29;11.82;;;2.60;;
64252;SDS011;50592;52.958;-7.470;2024-01-30T03:43:58;6.90;;;2.47;;
64252;SDS011;50592;52.958;-7.470;2024-01-30T03:46:37;8.80;;;2.10;;
64252;SDS011;50592;52.958;-7.470;2024-01-30T03:49:03;14.75;;;3.00;;
64252;SDS011;50592;52.958;-7.470;2024-01-30T03:51:29;10.40;;;2.60;;
64252;SDS011;50592;52.958;-7.470;2024-01-30T03:53:56;10.15;;;2.67;;
64252;SDS011;50592;52.958;-7.470;2024-01-30T03:56:22;11.93;;;2.35;;
64252;SDS011;50592;52.958;-7.470;2024-01-30T03:58:48;9.63;;;2.10;;
64252;SDS011;50592;52.958;-7.470;2024-01-30T04:01:18;14.70;;;3.38;;
64252;SDS011;50592;52.958;-7.470;2024-01-30T04:03:47;12.82;;;2.88;;
64252;SDS011;50592;52.958;-7.470;2024-01-30T04:06:19;9.60;;;2.55;;
64252;SDS011;50592;52.958;-7.470;2024-01-30T04:08:45;7.47;;;2.20;;
64252;SDS011;50592;52.958;-7.470;2024-01-30T04:11:13;12.25;;;2.88;;
64252;SDS011;50592;52.958;-7.470;2024-01-30T04:13:39;11.48;;;2.67;;
64252;SDS011;50592;52.958;-7.470;2024-01-30T04:16:06;8.80;;;2.58;;
64252;SDS011;50592;52.958;-7.470;2024-01-30T04:18:35;12.60;;;3.30;;
64252;SDS011;50592;52.958;-7.470;2024-01-30T04:21:01;7.28;;;2.70;;
64252;SDS011;50592;52.958;-7.470;2024-01-30T04:23:27;8.52;;;3.03;;
64252;SDS011;50592;52.958;-7.470;2024-01-30T04:26:13;6.97;;;2.60;;
64252;SDS011;50592;52.958;-7.470;2024-01-30T04:28:44;13.13;;;3.08;;
64252;SDS011;50592;52.958;-7.470;2024-01-30T04:31:28;14.18;;;2.83;;
64252;SDS011;50592;52.958;-7.470;2024-01-30T04:33:53;10.93;;;3.30;;
64252;SDS011;50592;52.958;-7.470;2024-01-30T04:36:19;9.77;;;3.03;;
64252;SDS011;50592;52.958;-7.470;2024-01-30T04:38:45;10.57;;;3.05;;
64252;SDS011;50592;52.958;-7.470;2024-01-30T04:41:11;13.25;;;3.83;;
64252;SDS011;50592;52.958;-7.470;2024-01-30T04:43:40;12.40;;;3.65;;
64252;SDS011;50592;52.958;-7.470;2024-01-30T04:46:06;8.50;;;3.08;;
64252;SDS011;50592;52.958;-7.470;2024-01-30T04:48:32;17.67;;;3.92;;
64252;SDS011;50592;52.958;-7.470;2024-01-30T04:50:58;11.88;;;3.30;;
64252;SDS011;50592;52.958;-7.470;2024-01-30T04:53:27;12.40;;;3.53;;
64252;SDS011;50592;52.958;-7.470;2024-01-30T04:55:53;11.10;;;4.25;;
64252;SDS011;50592;52.958;-7.470;2024-01-30T04:58:19;8.75;;;3.80;;
64252;SDS011;50592;52.958;-7.470;2024-01-30T05:00:45;16.80;;;4.50;;
64252;SDS011;50592;52.958;-7.470;2024-01-30T05:03:13;12.55;;;3.97;;
64252;SDS011;50592;52.958;-7.470;2024-01-30T05:05:40;14.32;;;3.88;;
64252;SDS011;50592;52.958;-7.470;2024-01-30T05:08:06;12.23;;;3.28;;
64252;SDS011;50592;52.958;-7.470;2024-01-30T05:10:35;11.98;;;4.03;;
64252;SDS011;50592;52.958;-7.470;2024-01-30T05:13:01;11.27;;;3.90;;
64252;SDS011;50592;52.958;-7.470;2024-01-30T05:15:27;11.45;;;3.30;;
64252;SDS011;50592;52.958;-7.470;2024-01-30T05:17:53;12.73;;;3.40;;
64252;SDS011;50592;52.958;-7.470;2024-01-30T05:20:19;11.82;;;3.22;;
64252;SDS011;50592;52.958;-7.470;2024-01-30T05:22:46;13.73;;;3.20;;
64252;SDS011;50592;52.958;-7.470;2024-01-30T05:25:12;26.38;;;4.60;;
64252;SDS011;50592;52.958;-7.470;2024-01-30T05:27:38;15.18;;;3.05;;
64252;SDS011;50592;52.958;-7.470;2024-01-30T05:30:07;7.93;;;3.17;;
64252;SDS011;50592;52.958;-7.470;2024-01-30T05:32:34;12.75;;;3.55;;
64252;SDS011;50592;52.958;-7.470;2024-01-30T05:35:00;11.70;;;3.05;;
64252;SDS011;50592;52.958;-7.470;2024-01-30T05:37:29;7.90;;;2.88;;
64252;SDS011;50592;52.958;-7.470;2024-01-30T05:39:58;11.35;;;2.63;;
64252;SDS011;50592;52.958;-7.470;2024-01-30T05:42:27;8.90;;;2.55;;
64252;SDS011;50592;52.958;-7.470;2024-01-30T05:44:53;12.38;;;3.00;;
64252;SDS011;50592;52.958;-7.470;2024-01-30T05:47:19;7.75;;;2.22;;
64252;SDS011;50592;52.958;-7.470;2024-01-30T05:49:45;11.48;;;1.50;;
64252;SDS011;50592;52.958;-7.470;2024-01-30T05:52:15;5.40;;;1.38;;
64252;SDS011;50592;52.958;-7.470;2024-01-30T05:54:43;5.82;;;1.73;;
64252;SDS011;50592;52.958;-7.470;2024-01-30T05:57:08;6.53;;;1.60;;
64252;SDS011;50592;52.958;-7.470;2024-01-30T05:59:35;9.57;;;2.03;;
64252;SDS011;50592;52.958;-7.470;2024-01-30T06:02:04;7.10;;;1.75;;
64252;SDS011;50592;52.958;-7.470;2024-01-30T06:04:30;5.45;;;1.85;;
64252;SDS011;50592;52.958;-7.470;2024-01-30T06:06:59;7.32;;;1.98;;
64252;SDS011;50592;52.958;-7.470;2024-01-30T06:09:40;7.00;;;2.17;;
64252;SDS011;50592;52.958;-7.470;2024-01-30T06:12:07;8.57;;;2.90;;
64252;SDS011;50592;52.958;-7.470;2024-01-30T06:14:33;12.70;;;2.83;;
64252;SDS011;50592;52.958;-7.470;2024-01-30T06:17:00;12.55;;;2.55;;
64252;SDS011;50592;52.958;-7.470;2024-01-30T06:19:29;7.78;;;2.47;;
64252;SDS011;50592;52.958;-7.470;2024-01-30T06:21:55;8.82;;;2.75;;
64252;SDS011;50592;52.958;-7.470;2024-01-30T06:24:24;10.48;;;3.00;;
64252;SDS011;50592;52.958;-7.470;2024-01-30T06:26:50;12.93;;;4.25;;
64252;SDS011;50592;52.958;-7.470;2024-01-30T06:29:16;15.30;;;2.45;;
64252;SDS011;50592;52.958;-7.470;2024-01-30T06:31:42;17.13;;;2.83;;
64252;SDS011;50592;52.958;-7.470;2024-01-30T06:34:11;7.35;;;2.10;;
64252;SDS011;50592;52.958;-7.470;2024-01-30T06:36:37;8.45;;;2.65;;
64252;SDS011;50592;52.958;-7.470;2024-01-30T06:39:03;8.40;;;1.95;;
64252;SDS011;50592;52.958;-7.470;2024-01-30T06:41:29;9.43;;;2.22;;
64252;SDS011;50592;52.958;-7.470;2024-01-30T06:43:55;10.90;;;2.55;;
64252;SDS011;50592;52.958;-7.470;2024-01-30T06:46:21;7.85;;;2.38;;
64252;SDS011;50592;52.958;-7.470;2024-01-30T06:48:47;10.98;;;2.00;;
64252;SDS011;50592;52.958;-7.470;2024-01-30T06:51:13;8.07;;;2.58;;
64252;SDS011;50592;52.958;-7.470;2024-01-30T06:53:39;5.90;;;2.22;;
64252;SDS011;50592;52.958;-7.470;2024-01-30T06:56:05;8.35;;;2.42;;
64252;SDS011;50592;52.958;-7.470;2024-01-30T06:58:31;6.95;;;2.20;;
64252;SDS011;50592;52.958;-7.470;2024-01-30T07:00:57;11.15;;;2.50;;
64252;SDS011;50592;52.958;-7.470;2024-01-30T07:03:23;8.43;;;2.15;;
64252;SDS011;50592;52.958;-7.470;2024-01-30T07:05:49;10.02;;;2.92;;
64252;SDS011;50592;52.958;-7.470;2024-01-30T07:08:15;4.85;;;2.00;;
64252;SDS011;50592;52.958;-7.470;2024-01-30T07:10:44;10.52;;;2.22;;
64252;SDS011;50592;52.958;-7.470;2024-01-30T07:13:10;15.15;;;2.90;;
64252;SDS011;50592;52.958;-7.470;2024-01-30T07:15:36;13.13;;;2.80;;
64252;SDS011;50592;52.958;-7.470;2024-01-30T07:18:03;4.43;;;1.80;;
64252;SDS011;50592;52.958;-7.470;2024-01-30T07:20:30;11.38;;;2.40;;
64252;SDS011;50592;52.958;-7.470;2024-01-30T07:23:00;8.65;;;3.47;;
64252;SDS011;50592;52.958;-7.470;2024-01-30T07:25:26;8.18;;;2.45;;
64252;SDS011;50592;52.958;-7.470;2024-01-30T07:27:52;10.63;;;2.65;;
64252;SDS011;50592;52.958;-7.470;2024-01-30T07:30:19;6.07;;;1.70;;
64252;SDS011;50592;52.958;-7.470;2024-01-30T07:32:46;8.48;;;2.63;;
64252;SDS011;50592;52.958;-7.470;2024-01-30T07:35:12;9.50;;;2.10;;
64252;SDS011;50592;52.958;-7.470;2024-01-30T07:37:39;9.05;;;1.98;;
64252;SDS011;50592;52.958;-7.470;2024-01-30T07:40:05;11.23;;;2.28;;
64252;SDS011;50592;52.958;-7.470;2024-01-30T07:42:32;8.07;;;2.28;;
64252;SDS011;50592;52.958;-7.470;2024-01-30T07:44:59;3.88;;;1.67;;
64252;SDS011;50592;52.958;-7.470;2024-01-30T07:47:25;7.45;;;2.25;;
64252;SDS011;50592;52.958;-7.470;2024-01-30T07:49:51;9.02;;;2.67;;
64252;SDS011;50592;52.958;-7.470;2024-01-30T07:52:17;8.50;;;3.05;;
64252;SDS011;50592;52.958;-7.470;2024-01-30T07:54:43;12.57;;;2.90;;
64252;SDS011;50592;52.958;-7.470;2024-01-30T07:57:09;10.57;;;2.72;;
64252;SDS011;50592;52.958;-7.470;2024-01-30T07:59:35;11.70;;;2.45;;
64252;SDS011;50592;52.958;-7.470;2024-01-30T08:02:01;8.07;;;1.90;;
64252;SDS011;50592;52.958;-7.470;2024-01-30T08:04:26;7.50;;;2.42;;
64252;SDS011;50592;52.958;-7.470;2024-01-30T08:06:52;5.47;;;1.95;;
64252;SDS011;50592;52.958;-7.470;2024-01-30T08:09:18;11.48;;;2.58;;
64252;SDS011;50592;52.958;-7.470;2024-01-30T08:11:44;7.20;;;2.30;;
64252;SDS011;50592;52.958;-7.470;2024-01-30T08:14:12;6.95;;;1.83;;
64252;SDS011;50592;52.958;-7.470;2024-01-30T08:16:39;8.48;;;2.20;;
64252;SDS011;50592;52.958;-7.470;2024-01-30T08:19:04;10.98;;;2.45;;
64252;SDS011;50592;52.958;-7.470;2024-01-30T08:21:30;9.25;;;2.20;;
64252;SDS011;50592;52.958;-7.470;2024-01-30T08:24:04;12.35;;;2.13;;
64252;SDS011;50592;52.958;-7.470;2024-01-30T08:26:31;3.40;;;1.80;;
64252;SDS011;50592;52.958;-7.470;2024-01-30T08:28:57;7.05;;;1.98;;
64252;SDS011;50592;52.958;-7.470;2024-01-30T08:31:23;7.97;;;2.88;;
64252;SDS011;50592;52.958;-7.470;2024-01-30T08:33:49;11.55;;;2.17;;
64252;SDS011;50592;52.958;-7.470;2024-01-30T08:36:17;11.73;;;2.67;;
64252;SDS011;50592;52.958;-7.470;2024-01-30T08:38:43;10.65;;;2.47;;
64252;SDS011;50592;52.958;-7.470;2024-01-30T08:41:09;6.75;;;2.00;;
64252;SDS011;50592;52.958;-7.470;2024-01-30T08:43:35;6.88;;;3.13;;
64252;SDS011;50592;52.958;-7.470;2024-01-30T08:46:01;4.43;;;2.08;;
64252;SDS011;50592;52.958;-7.470;2024-01-30T08:48:27;10.32;;;2.00;;
64252;SDS011;50592;52.958;-7.470;2024-01-30T08:50:53;6.72;;;2.08;;
64252;SDS011;50592;52.958;-7.470;2024-01-30T08:53:19;9.80;;;1.92;;
64252;SDS011;50592;52.958;-7.470;2024-01-30T08:55:45;5.18;;;2.00;;
64252;SDS011;50592;52.958;-7.470;2024-01-30T08:58:10;8.93;;;2.33;;
64252;SDS011;50592;52.958;-7.470;2024-01-30T09:00:36;9.63;;;2.17;;
64252;SDS011;50592;52.958;-7.470;2024-01-30T09:03:05;5.53;;;1.95;;
64252;SDS011;50592;52.958;-7.470;2024-01-30T09:05:31;9.85;;;2.35;;
64252;SDS011;50592;52.958;-7.470;2024-01-30T09:07:57;10.90;;;1.92;;
64252;SDS011;50592;52.958;-7.470;2024-01-30T09:10:22;7.90;;;2.58;;
64252;SDS011;50592;52.958;-7.470;2024-01-30T09:12:48;8.68;;;2.33;;
64252;SDS011;50592;52.958;-7.470;2024-01-30T09:15:14;9.52;;;2.80;;
64252;SDS011;50592;52.958;-7.470;2024-01-30T09:17:40;4.28;;;1.77;;
64252;SDS011;50592;52.958;-7.470;2024-01-30T09:20:06;7.65;;;2.35;;
64252;SDS011;50592;52.958;-7.470;2024-01-30T09:22:32;4.88;;;2.45;;
64252;SDS011;50592;52.958;-7.470;2024-01-30T09:24:58;9.80;;;3.38;;
64252;SDS011;50592;52.958;-7.470;2024-01-30T09:27:24;7.18;;;2.28;;
64252;SDS011;50592;52.958;-7.470;2024-01-30T09:29:50;4.93;;;2.45;;
64252;SDS011;50592;52.958;-7.470;2024-01-30T09:32:15;11.93;;;3.50;;
64252;SDS011;50592;52.958;-7.470;2024-01-30T09:34:43;11.13;;;3.30;;
64252;SDS011;50592;52.958;-7.470;2024-01-30T09:37:08;9.20;;;4.70;;
64252;SDS011;50592;52.958;-7.470;2024-01-30T09:39:34;17.40;;;4.28;;
64252;SDS011;50592;52.958;-7.470;2024-01-30T09:42:01;11.27;;;3.85;;
64252;SDS011;50592;52.958;-7.470;2024-01-30T09:44:30;12.85;;;3.78;;
64252;SDS011;50592;52.958;-7.470;2024-01-30T09:47:00;16.90;;;5.43;;
64252;SDS011;50592;52.958;-7.470;2024-01-30T09:49:32;10.93;;;2.90;;
64252;SDS011;50592;52.958;-7.470;2024-01-30T09:52:05;11.82;;;2.47;;
64252;SDS011;50592;52.958;-7.470;2024-01-30T09:54:31;9.27;;;2.95;;
64252;SDS011;50592;52.958;-7.470;2024-01-30T09:56:58;9.00;;;3.58;;
64252;SDS011;50592;52.958;-7.470;2024-01-30T09:59:24;11.48;;;3.60;;
64252;SDS011;50592;52.958;-7.470;2024-01-30T10:01:50;9.27;;;3.05;;
64252;SDS011;50592;52.958;-7.470;2024-01-30T10:04:15;7.18;;;2.55;;
64252;SDS011;50592;52.958;-7.470;2024-01-30T10:06:41;9.93;;;2.65;;
64252;SDS011;50592;52.958;-7.470;2024-01-30T10:09:07;6.22;;;2.92;;
64252;SDS011;50592;52.958;-7.470;2024-01-30T10:11:34;13.30;;;3.47;;
64252;SDS011;50592;52.958;-7.470;2024-01-30T10:14:01;10.38;;;2.92;;
64252;SDS011;50592;52.958;-7.470;2024-01-30T10:16:27;5.75;;;2.92;;
64252;SDS011;50592;52.958;-7.470;2024-01-30T10:18:53;9.73;;;4.45;;
64252;SDS011;50592;52.958;-7.470;2024-01-30T10:21:19;9.63;;;3.95;;
64252;SDS011;50592;52.958;-7.470;2024-01-30T10:23:45;9.65;;;4.25;;
64252;SDS011;50592;52.958;-7.470;2024-01-30T10:26:10;13.73;;;2.97;;
64252;SDS011;50592;52.958;-7.470;2024-01-30T10:28:36;10.13;;;3.08;;
64252;SDS011;50592;52.958;-7.470;2024-01-30T10:31:02;9.18;;;2.95;;
64252;SDS011;50592;52.958;-7.470;2024-01-30T10:33:31;7.18;;;2.50;;
64252;SDS011;50592;52.958;-7.470;2024-01-30T10:36:00;11.88;;;2.88;;
64252;SDS011;50592;52.958;-7.470;2024-01-30T10:38:30;11.68;;;4.32;;
64252;SDS011;50592;52.958;-7.470;2024-01-30T10:40:58;18.85;;;6.05;;
64252;SDS011;50592;52.958;-7.470;2024-01-30T10:43:32;8.07;;;3.00;;
64252;SDS011;50592;52.958;-7.470;2024-01-30T10:46:10;7.45;;;2.50;;
64252;SDS011;50592;52.958;-7.470;2024-01-30T10:48:42;16.10;;;9.30;;
64252;SDS011;50592;52.958;-7.470;2024-01-30T10:51:10;9.23;;;3.83;;
64252;SDS011;50592;52.958;-7.470;2024-01-30T10:53:39;8.95;;;2.97;;
64252;SDS011;50592;52.958;-7.470;2024-01-30T10:56:06;10.93;;;3.97;;
64252;SDS011;50592;52.958;-7.470;2024-01-30T10:58:35;10.75;;;4.78;;
64252;SDS011;50592;52.958;-7.470;2024-01-30T11:01:03;20.48;;;9.82;;
64252;SDS011;50592;52.958;-7.470;2024-01-30T11:03:35;17.98;;;8.07;;
64252;SDS011;50592;52.958;-7.470;2024-01-30T11:06:02;13.88;;;8.32;;
64252;SDS011;50592;52.958;-7.470;2024-01-30T11:08:32;11.52;;;6.38;;
64252;SDS011;50592;52.958;-7.470;2024-01-30T11:10:58;17.80;;;8.93;;
64252;SDS011;50592;52.958;-7.470;2024-01-30T11:13:27;13.70;;;4.93;;
64252;SDS011;50592;52.958;-7.470;2024-01-30T11:16:03;15.88;;;3.70;;
64252;SDS011;50592;52.958;-7.470;2024-01-30T11:18:31;14.40;;;6.65;;
64252;SDS011;50592;52.958;-7.470;2024-01-30T11:20:58;11.65;;;4.60;;
64252;SDS011;50592;52.958;-7.470;2024-01-30T11:23:27;15.40;;;5.90;;
64252;SDS011;50592;52.958;-7.470;2024-01-30T11:25:53;10.93;;;4.88;;
64252;SDS011;50592;52.958;-7.470;2024-01-30T11:32:21;9.38;;;2.97;;
64252;SDS011;50592;52.958;-7.470;2024-01-30T11:34:49;10.52;;;2.40;;
64252;SDS011;50592;52.958;-7.470;2024-01-30T11:37:15;7.82;;;2.25;;
64252;SDS011;50592;52.958;-7.470;2024-01-30T11:39:45;8.68;;;3.03;;
64252;SDS011;50592;52.958;-7.470;2024-01-30T11:42:11;9.93;;;2.38;;
64252;SDS011;50592;52.958;-7.470;2024-01-30T11:44:38;5.05;;;1.88;;
64252;SDS011;50592;52.958;-7.470;2024-01-30T11:47:04;6.57;;;2.90;;
64252;SDS011;50592;52.958;-7.470;2024-01-30T11:49:30;9.45;;;3.38;;
64252;SDS011;50592;52.958;-7.470;2024-01-30T11:51:56;7.90;;;2.65;;
64252;SDS011;50592;52.958;-7.470;2024-01-30T11:54:22;8.10;;;2.20;;
64252;SDS011;50592;52.958;-7.470;2024-01-30T11:56:48;7.45;;;1.70;;
64252;SDS011;50592;52.958;-7.470;2024-01-30T11:59:14;9.27;;;2.40;;
64252;SDS011;50592;52.958;-7.470;2024-01-30T12:01:39;7.30;;;2.30;;
64252;SDS011;50592;52.958;-7.470;2024-01-30T12:04:07;11.52;;;2.80;;
64252;SDS011;50592;52.958;-7.470;2024-01-30T12:06:34;10.35;;;5.63;;
64252;SDS011;50592;52.958;-7.470;2024-01-30T12:09:01;7.35;;;2.42;;
64252;SDS011;50592;52.958;-7.470;2024-01-30T12:11:31;9.60;;;2.80;;
64252;SDS011;50592;52.958;-7.470;2024-01-30T12:13:57;6.35;;;1.95;;
64252;SDS011;50592;52.958;-7.470;2024-01-30T12:16:24;10.40;;;2.50;;
64252;SDS011;50592;52.958;-7.470;2024-01-30T12:18:58;8.13;;;2.20;;
64252;SDS011;50592;52.958;-7.470;2024-01-30T12:21:24;10.57;;;2.10;;
64252;SDS011;50592;52.958;-7.470;2024-01-30T12:23:50;10.48;;;2.40;;
64252;SDS011;50592;52.958;-7.470;2024-01-30T12:26:17;8.05;;;2.13;;
64252;SDS011;50592;52.958;-7.470;2024-01-30T12:28:49;15.18;;;2.25;;
64252;SDS011;50592;52.958;-7.470;2024-01-30T12:31:15;13.43;;;3.05;;
64252;SDS011;50592;52.958;-7.470;2024-01-30T12:33:41;13.02;;;3.17;;
64252;SDS011;50592;52.958;-7.470;2024-01-30T12:36:07;11.50;;;2.83;;
64252;SDS011;50592;52.958;-7.470;2024-01-30T12:38:32;10.55;;;2.38;;
64252;SDS011;50592;52.958;-7.470;2024-01-30T12:40:58;9.45;;;2.63;;
64252;SDS011;50592;52.958;-7.470;2024-01-30T12:43:24;8.13;;;2.25;;
64252;SDS011;50592;52.958;-7.470;2024-01-30T12:45:52;11.13;;;2.38;;
64252;SDS011;50592;52.958;-7.470;2024-01-30T12:48:18;6.50;;;2.10;;
64252;SDS011;50592;52.958;-7.470;2024-01-30T12:50:44;9.85;;;2.20;;
64252;SDS011;50592;52.958;-7.470;2024-01-30T12:53:09;7.88;;;2.15;;
64252;SDS011;50592;52.958;-7.470;2024-01-30T12:55:35;9.07;;;1.67;;
64252;SDS011;50592;52.958;-7.470;2024-01-30T12:58:01;9.25;;;1.45;;
64252;SDS011;50592;52.958;-7.470;2024-01-30T13:00:27;8.00;;;1.52;;
64252;SDS011;50592;52.958;-7.470;2024-01-30T13:02:52;4.60;;;1.20;;
64252;SDS011;50592;52.958;-7.470;2024-01-30T13:05:18;6.10;;;1.58;;
64252;SDS011;50592;52.958;-7.470;2024-01-30T13:07:44;4.80;;;1.27;;
64252;SDS011;50592;52.958;-7.470;2024-01-30T13:10:10;5.28;;;1.33;;
64252;SDS011;50592;52.958;-7.470;2024-01-30T13:12:36;4.95;;;1.48;;
64252;SDS011;50592;52.958;-7.470;2024-01-30T13:15:03;18.45;;;12.80;;
64252;SDS011;50592;52.958;-7.470;2024-01-30T13:17:31;15.50;;;4.50;;
64252;SDS011;50592;52.958;-7.470;2024-01-30T13:19:57;5.55;;;1.90;;
64252;SDS011;50592;52.958;-7.470;2024-01-30T13:22:23;8.20;;;4.20;;
64252;SDS011;50592;52.958;-7.470;2024-01-30T13:24:49;15.15;;;4.97;;
64252;SDS011;50592;52.958;-7.470;2024-01-30T13:27:15;5.47;;;3.17;;
64252;SDS011;50592;52.958;-7.470;2024-01-30T13:29:41;9.90;;;4.70;;
64252;SDS011;50592;52.958;-7.470;2024-01-30T13:32:07;7.15;;;5.68;;
64252;SDS011;50592;52.958;-7.470;2024-01-30T13:34:33;6.63;;;2.45;;
64252;SDS011;50592;52.958;-7.470;2024-01-30T13:36:59;4.45;;;1.55;;
64252;SDS011;50592;52.958;-7.470;2024-01-30T13:39:25;4.70;;;2.15;;
64252;SDS011;50592;52.958;-7.470;2024-01-30T13:41:51;4.40;;;1.90;;
64252;SDS011;50592;52.958;-7.470;2024-01-30T13:44:17;4.88;;;1.77;;
64252;SDS011;50592;52.958;-7.470;2024-01-30T13:46:43;7.82;;;2.40;;
64252;SDS011;50592;52.958;-7.470;2024-01-30T13:49:09;3.80;;;2.40;;
64252;SDS011;50592;52.958;-7.470;2024-01-30T13:51:34;5.22;;;1.67;;
64252;SDS011;50592;52.958;-7.470;2024-01-30T13:54:00;6.15;;;2.60;;
64252;SDS011;50592;52.958;-7.470;2024-01-30T13:56:26;5.32;;;2.20;;
64252;SDS011;50592;52.958;-7.470;2024-01-30T13:58:52;7.60;;;1.85;;
64252;SDS011;50592;52.958;-7.470;2024-01-30T14:01:18;6.95;;;1.60;;
64252;SDS011;50592;52.958;-7.470;2024-01-30T14:03:44;4.32;;;1.40;;
64252;SDS011;50592;52.958;-7.470;2024-01-30T14:06:11;6.03;;;1.80;;
64252;SDS011;50592;52.958;-7.470;2024-01-30T14:08:37;12.60;;;3.67;;
64252;SDS011;50592;52.958;-7.470;2024-01-30T14:11:05;6.03;;;3.53;;
64252;SDS011;50592;52.958;-7.470;2024-01-30T14:13:32;7.50;;;3.00;;
64252;SDS011;50592;52.958;-7.470;2024-01-30T14:15:58;5.95;;;2.35;;
64252;SDS011;50592;52.958;-7.470;2024-01-30T14:18:24;11.45;;;5.72;;
64252;SDS011;50592;52.958;-7.470;2024-01-30T14:20:51;14.98;;;8.98;;
64252;SDS011;50592;52.958;-7.470;2024-01-30T14:23:17;6.72;;;2.25;;
64252;SDS011;50592;52.958;-7.470;2024-01-30T14:25:43;17.27;;;8.82;;
64252;SDS011;50592;52.958;-7.470;2024-01-30T14:28:09;11.45;;;6.03;;
64252;SDS011;50592;52.958;-7.470;2024-01-30T14:30:35;5.90;;;2.88;;
64252;SDS011;50592;52.958;-7.470;2024-01-30T14:33:01;10.45;;;4.72;;
64252;SDS011;50592;52.958;-7.470;2024-01-30T14:35:27;29.52;;;14.30;;
64252;SDS011;50592;52.958;-7.470;2024-01-30T14:37:53;25.20;;;11.23;;
64252;SDS011;50592;52.958;-7.470;2024-01-30T14:40:19;28.92;;;12.65;;
64252;SDS011;50592;52.958;-7.470;2024-01-30T14:42:45;22.70;;;14.48;;
64252;SDS011;50592;52.958;-7.470;2024-01-30T14:45:11;31.98;;;21.08;;
64252;SDS011;50592;52.958;-7.470;2024-01-30T14:47:37;44.90;;;30.63;;
64252;SDS011;50592;52.958;-7.470;2024-01-30T14:50:03;42.15;;;30.17;;
64252;SDS011;50592;52.958;-7.470;2024-01-30T14:52:30;49.47;;;32.45;;
64252;SDS011;50592;52.958;-7.470;2024-01-30T14:58:36;18.55;;;8.75;;
64252;SDS011;50592;52.958;-7.470;2024-01-30T15:01:02;18.42;;;10.20;;
64252;SDS011;50592;52.958;-7.470;2024-01-30T15:03:28;8.18;;;4.55;;
64252;SDS011;50592;52.958;-7.470;2024-01-30T15:05:57;7.53;;;2.47;;
64252;SDS011;50592;52.958;-7.470;2024-01-30T15:08:23;6.55;;;2.75;;
64252;SDS011;50592;52.958;-7.470;2024-01-30T15:10:49;9.13;;;3.83;;
64252;SDS011;50592;52.958;-7.470;2024-01-30T15:13:16;3.72;;;1.73;;
64252;SDS011;50592;52.958;-7.470;2024-01-30T15:15:42;8.68;;;2.90;;
64252;SDS011;50592;52.958;-7.470;2024-01-30T15:18:08;3.80;;;1.95;;
64252;SDS011;50592;52.958;-7.470;2024-01-30T15:20:36;5.55;;;1.55;;
64252;SDS011;50592;52.958;-7.470;2024-01-30T15:23:02;5.65;;;1.70;;
64252;SDS011;50592;52.958;-7.470;2024-01-30T15:25:28;5.85;;;1.88;;
64252;SDS011;50592;52.958;-7.470;2024-01-30T15:27:54;6.53;;;1.58;;
64252;SDS011;50592;52.958;-7.470;2024-01-30T15:33:25;3.58;;;1.60;;
64252;SDS011;50592;52.958;-7.470;2024-01-30T15:35:51;3.75;;;1.70;;
64252;SDS011;50592;52.958;-7.470;2024-01-30T15:38:17;8.30;;;4.22;;
64252;SDS011;50592;52.958;-7.470;2024-01-30T15:40:46;26.55;;;11.25;;
64252;SDS011;50592;52.958;-7.470;2024-01-30T15:43:19;41.33;;;19.45;;
64252;SDS011;50592;52.958;-7.470;2024-01-30T15:45:45;16.63;;;7.72;;
64252;SDS011;50592;52.958;-7.470;2024-01-30T15:48:11;39.80;;;20.08;;
64252;SDS011;50592;52.958;-7.470;2024-01-30T15:50:37;48.97;;;24.08;;
64252;SDS011;50592;52.958;-7.470;2024-01-30T15:53:04;117.80;;;56.10;;
64252;SDS011;50592;52.958;-7.470;2024-01-30T15:55:30;46.38;;;21.92;;
64252;SDS011;50592;52.958;-7.470;2024-01-30T15:57:56;61.50;;;29.45;;
64252;SDS011;50592;52.958;-7.470;2024-01-30T16:00:22;116.38;;;54.72;;
64252;SDS011;50592;52.958;-7.470;2024-01-30T16:02:48;102.13;;;46.00;;
64252;SDS011;50592;52.958;-7.470;2024-01-30T16:05:32;96.90;;;49.85;;
64252;SDS011;50592;52.958;-7.470;2024-01-30T16:08:17;77.63;;;41.90;;
64252;SDS011;50592;52.958;-7.470;2024-01-30T16:11:08;109.15;;;57.00;;
64252;SDS011;50592;52.958;-7.470;2024-01-30T16:13:53;56.80;;;39.90;;
64252;SDS011;50592;52.958;-7.470;2024-01-30T16:16:37;55.20;;;36.10;;
64252;SDS011;50592;52.958;-7.470;2024-01-30T16:22:35;44.22;;;27.85;;
64252;SDS011;50592;52.958;-7.470;2024-01-30T16:25:23;64.00;;;40.30;;
64252;SDS011;50592;52.958;-7.470;2024-01-30T16:28:09;94.43;;;63.97;;
64252;SDS011;50592;52.958;-7.470;2024-01-30T16:30:54;77.50;;;52.80;;
64252;SDS011;50592;52.958;-7.470;2024-01-30T16:33:42;57.63;;;36.22;;
64252;SDS011;50592;52.958;-7.470;2024-01-30T16:36:29;33.80;;;20.95;;
64252;SDS011;50592;52.958;-7.470;2024-01-30T16:39:15;46.90;;;29.73;;
64252;SDS011;50592;52.958;-7.470;2024-01-30T16:42:00;45.55;;;23.20;;
64252;SDS011;50592;52.958;-7.470;2024-01-30T16:44:46;56.03;;;31.90;;
64252;SDS011;50592;52.958;-7.470;2024-01-30T16:47:32;55.28;;;31.50;;